createdAt,value
2022-08-05T00:00:18.360Z,24.59
2022-08-05T00:02:50.716Z,24.67
2022-08-05T00:06:02.611Z,24.59
2022-08-05T00:08:32.978Z,24.46
2022-08-05T00:10:56.943Z,24.43
2022-08-05T00:13:38.188Z,24.51
2022-08-05T00:16:08.998Z,24.49
2022-08-05T00:18:37.978Z,24.51
2022-08-05T00:21:06.477Z,24.52
2022-08-05T00:23:46.950Z,24.52
2022-08-05T00:26:20.965Z,24.47
2022-08-05T00:28:49.526Z,24.38
2022-08-05T00:31:16.347Z,24.27
2022-08-05T00:34:53.628Z,24.28
2022-08-05T00:37:11.128Z,24.29
2022-08-05T00:39:44.372Z,24.17
2022-08-05T00:42:35.671Z,24.22
2022-08-05T00:45:08.546Z,24.14
2022-08-05T00:47:57.169Z,24.18
2022-08-05T00:50:25.262Z,24.19
2022-08-05T00:52:53.246Z,24.10
2022-08-05T00:55:20.093Z,23.88
2022-08-05T00:57:58.032Z,24.00
2022-08-05T01:00:26.240Z,23.83
2022-08-05T01:02:53.076Z,23.77
2022-08-05T01:05:19.866Z,23.86
2022-08-05T01:08:40.219Z,23.86
2022-08-05T01:10:54.755Z,23.93
2022-08-05T01:13:57.824Z,23.83
2022-08-05T01:16:34.014Z,23.73
2022-08-05T01:19:56.278Z,23.72
2022-08-05T01:22:28.099Z,23.69
2022-08-05T01:25:09.902Z,23.71
2022-08-05T01:27:50.670Z,23.66
2022-08-05T01:30:34.223Z,23.66
2022-08-05T01:33:06.249Z,23.62
2022-08-05T01:35:51.656Z,23.59
2022-08-05T01:38:24.723Z,23.53
2022-08-05T01:40:57.491Z,23.46
2022-08-05T01:43:26.487Z,23.42
2022-08-05T01:45:56.819Z,23.36
2022-08-05T01:48:28.565Z,23.31
2022-08-05T01:50:56.838Z,23.37
2022-08-05T01:53:55.235Z,23.29
2022-08-05T01:56:13.479Z,23.32
2022-08-05T01:59:02.511Z,23.35
2022-08-05T02:01:39.706Z,23.31
2022-08-05T02:04:10.196Z,23.29
2022-08-05T02:06:38.909Z,23.23
2022-08-05T02:09:06.946Z,23.17
2022-08-05T02:11:48.116Z,23.26
2022-08-05T02:14:25.514Z,23.19
2022-08-05T02:16:55.380Z,23.08
2022-08-05T02:19:25.009Z,23.20
2022-08-05T02:22:26.941Z,23.22
2022-08-05T02:25:12.664Z,23.15
2022-08-05T02:27:59.778Z,23.06
2022-08-05T02:30:32.507Z,23.14
2022-08-05T02:33:02.937Z,23.13
2022-08-05T02:35:38.086Z,23.03
2022-08-05T02:38:19.550Z,23.05
2022-08-05T02:40:46.924Z,23.08
2022-08-05T02:43:16.727Z,22.80
2022-08-05T02:45:51.500Z,22.95
2022-08-05T02:48:29.469Z,22.88
2022-08-05T02:51:00.110Z,22.88
2022-08-05T02:53:29.198Z,22.86
2022-08-05T02:56:07.007Z,22.89
2022-08-05T02:58:36.394Z,22.89
2022-08-05T03:01:14.825Z,22.76
2022-08-05T03:04:03.383Z,22.67
2022-08-05T03:06:57.016Z,22.66
2022-08-05T03:09:17.820Z,22.71
2022-08-05T03:11:58.039Z,22.81
2022-08-05T03:14:25.045Z,22.83
2022-08-05T03:16:53.530Z,22.75
2022-08-05T03:19:33.823Z,22.79
2022-08-05T03:22:01.424Z,22.65
2022-08-05T03:24:30.824Z,22.63
2022-08-05T03:26:59.993Z,22.69
2022-08-05T03:29:45.256Z,22.64
2022-08-05T03:32:15.506Z,22.62
2022-08-05T03:34:50.728Z,22.62
2022-08-05T03:37:19.013Z,22.66
2022-08-05T03:40:01.758Z,22.76
2022-08-05T03:42:31.971Z,22.68
2022-08-05T03:44:59.156Z,22.64
2022-08-05T03:47:30.495Z,22.55
2022-08-05T03:50:02.237Z,22.53
2022-08-05T03:52:38.383Z,22.43
2022-08-05T03:56:01.099Z,22.32
2022-08-05T03:58:22.307Z,22.28
2022-08-05T04:00:57.942Z,22.19
2022-08-05T04:03:29.409Z,22.22
2022-08-05T04:05:57.932Z,22.26
2022-08-05T04:08:36.372Z,22.33
2022-08-05T04:11:06.020Z,22.28
2022-08-05T04:13:50.647Z,22.26
2022-08-05T04:16:25.121Z,22.24
2022-08-05T04:18:57.772Z,22.29
2022-08-05T04:22:09.084Z,22.30
2022-08-05T04:24:19.189Z,22.37
2022-08-05T04:26:48.881Z,22.35
2022-08-05T04:29:15.472Z,22.27
2022-08-05T04:31:43.002Z,22.29
2022-08-05T04:34:33.031Z,22.36
2022-08-05T04:36:56.420Z,22.40
2022-08-05T04:39:23.193Z,22.36
2022-08-05T04:41:50.999Z,22.40
2022-08-05T04:44:28.975Z,22.44
2022-08-05T04:46:58.925Z,22.55
2022-08-05T04:49:38.348Z,22.45
2022-08-05T04:52:13.231Z,22.54
2022-08-05T04:54:40.630Z,22.61
2022-08-05T04:57:07.199Z,22.61
2022-08-05T04:59:39.214Z,22.59
2022-08-05T05:02:41.411Z,22.65
2022-08-05T05:05:02.372Z,22.77
2022-08-05T05:07:32.794Z,22.84
2022-08-05T05:10:05.418Z,22.91
2022-08-05T05:12:33.373Z,22.93
2022-08-05T05:15:00.053Z,23.01
2022-08-05T05:17:57.067Z,23.17
2022-08-05T05:20:28.267Z,23.23
2022-08-05T05:22:57.139Z,23.29
2022-08-05T05:25:40.568Z,23.39
2022-08-05T05:28:08.716Z,23.51
2022-08-05T05:30:36.147Z,23.61
2022-08-05T05:33:15.893Z,23.65
2022-08-05T05:35:46.746Z,23.75
2022-08-05T05:38:15.010Z,23.82
2022-08-05T05:40:51.848Z,23.98
2022-08-05T05:43:54.645Z,24.17
2022-08-05T05:46:15.829Z,24.20
2022-08-05T05:48:45.871Z,24.46
2022-08-05T05:51:22.428Z,24.51
2022-08-05T05:53:57.428Z,24.72
2022-08-05T05:56:32.692Z,24.64
2022-08-05T05:59:05.862Z,24.55
2022-08-05T06:01:39.325Z,25.09
2022-08-05T06:04:11.732Z,25.31
2022-08-05T06:06:42.670Z,25.43
2022-08-05T06:09:17.485Z,25.58
2022-08-05T06:11:59.495Z,25.47
2022-08-05T06:14:29.207Z,25.38
2022-08-05T06:16:56.965Z,25.76
2022-08-05T06:19:26.278Z,25.72
2022-08-05T06:22:07.252Z,25.95
2022-08-05T06:24:36.583Z,25.88
2022-08-05T06:27:04.415Z,25.85
2022-08-05T06:29:49.338Z,25.89
2022-08-05T06:32:26.386Z,26.26
2022-08-05T06:34:58.339Z,26.40
2022-08-05T06:37:56.868Z,26.54
2022-08-05T06:40:13.998Z,26.61
2022-08-05T06:42:45.635Z,26.67
2022-08-05T06:45:21.336Z,26.80
2022-08-05T06:48:36.110Z,26.85
2022-08-05T06:50:46.256Z,27.14
2022-08-05T06:53:22.388Z,27.35
2022-08-05T06:55:49.270Z,27.50
2022-08-05T06:58:20.391Z,27.50
2022-08-05T07:01:01.558Z,27.42
2022-08-05T07:03:32.848Z,27.65
2022-08-05T07:06:06.137Z,27.49
2022-08-05T07:08:47.199Z,27.66
2022-08-05T07:11:16.017Z,27.37
2022-08-05T07:14:01.993Z,27.46
2022-08-05T07:17:58.540Z,27.72
2022-08-05T07:22:28.389Z,27.96
2022-08-05T07:25:23.486Z,27.90
2022-08-05T07:27:58.693Z,28.26
2022-08-05T07:30:38.412Z,28.20
2022-08-05T07:33:09.553Z,28.52
2022-08-05T07:36:02.810Z,28.85
2022-08-05T07:38:34.727Z,28.55
2022-08-05T07:42:07.317Z,28.38
2022-08-05T07:43:59.532Z,28.46
2022-08-05T07:46:27.675Z,28.44
2022-08-05T07:49:02.656Z,28.87
2022-08-05T07:51:36.645Z,29.27
2022-08-05T07:54:05.236Z,29.40
2022-08-05T07:56:39.175Z,29.78
2022-08-05T07:59:23.178Z,29.88
2022-08-05T08:01:58.087Z,30.19
2022-08-05T08:04:37.586Z,30.19
2022-08-05T08:07:07.315Z,30.47
2022-08-05T08:09:34.903Z,30.59
2022-08-05T08:12:09.109Z,31.00
2022-08-05T08:14:38.126Z,30.83
2022-08-05T08:17:15.804Z,30.45
2022-08-05T08:20:22.114Z,30.22
2022-08-05T08:22:32.287Z,29.84
2022-08-05T08:25:03.230Z,29.88
2022-08-05T08:27:39.906Z,30.00
2022-08-05T08:30:19.693Z,30.42
2022-08-05T08:32:58.364Z,30.17
2022-08-05T08:35:35.081Z,29.80
2022-08-05T08:38:07.780Z,29.50
2022-08-05T08:40:35.931Z,29.73
2022-08-05T08:45:16.688Z,30.34
2022-08-05T08:45:54.470Z,30.82
2022-08-05T08:48:36.125Z,30.17
2022-08-05T08:52:02.348Z,30.68
2022-08-05T08:53:56.163Z,30.79
2022-08-05T08:56:23.702Z,31.27
2022-08-05T08:58:54.006Z,31.63
2022-08-05T09:01:21.354Z,31.39
2022-08-05T09:03:58.297Z,31.49
2022-08-05T09:06:30.487Z,31.47
2022-08-05T09:09:01.907Z,32.10
2022-08-05T09:11:52.767Z,32.30
2022-08-05T09:14:56.990Z,32.65
2022-08-05T09:17:40.267Z,32.66
2022-08-05T09:20:02.182Z,32.64
2022-08-05T09:22:31.130Z,32.99
2022-08-05T09:25:13.525Z,33.23
2022-08-05T09:28:04.125Z,33.11
2022-08-05T09:30:34.828Z,33.32
2022-08-05T09:33:02.537Z,33.09
2022-08-05T09:35:31.572Z,33.15
2022-08-05T09:38:16.199Z,33.01
2022-08-05T09:40:52.346Z,32.89
2022-08-05T09:43:41.453Z,32.70
2022-08-05T09:46:27.804Z,32.73
2022-08-05T09:49:08.337Z,33.21
2022-08-05T09:51:48.800Z,33.64
2022-08-05T09:54:21.267Z,33.56
2022-08-05T09:56:57.470Z,33.97
2022-08-05T09:59:28.242Z,34.25
2022-08-05T10:01:57.686Z,34.25
2022-08-05T10:04:36.120Z,33.95
2022-08-05T10:07:20.098Z,33.95
2022-08-05T10:10:13.938Z,34.25
2022-08-05T10:12:56.607Z,34.77
2022-08-05T10:15:29.667Z,35.11
2022-08-05T10:18:04.108Z,35.48
2022-08-05T10:20:34.461Z,35.42
2022-08-05T10:23:02.127Z,35.56
2022-08-05T10:25:30.098Z,35.57
2022-08-05T10:28:16.611Z,35.58
2022-08-05T10:32:52.274Z,35.52
2022-08-05T10:33:35.295Z,35.62
2022-08-05T10:36:04.685Z,35.31
2022-08-05T10:38:33.298Z,34.96
2022-08-05T10:41:23.439Z,34.87
2022-08-05T10:44:01.338Z,35.34
2022-08-05T10:46:57.517Z,35.61
2022-08-05T10:49:26.938Z,35.91
2022-08-05T10:52:03.285Z,35.83
2022-08-05T10:55:01.946Z,35.78
2022-08-05T10:57:33.915Z,35.98
2022-08-05T11:00:17.945Z,36.19
2022-08-05T11:03:25.628Z,36.39
2022-08-05T11:06:08.559Z,36.19
2022-08-05T11:09:16.723Z,36.12
2022-08-05T11:11:53.544Z,36.13
2022-08-05T11:14:37.302Z,36.36
2022-08-05T11:18:09.500Z,36.15
2022-08-05T11:20:34.289Z,35.45
2022-08-05T11:23:33.463Z,35.72
2022-08-05T11:26:29.061Z,35.84
2022-08-05T11:29:06.899Z,35.03
2022-08-05T11:31:58.166Z,35.10
2022-08-05T11:34:51.968Z,34.80
2022-08-05T11:38:29.936Z,34.42
2022-08-05T11:41:14.169Z,34.44
2022-08-05T11:44:06.989Z,34.56
2022-08-05T11:46:58.422Z,34.69
2022-08-05T11:49:34.054Z,34.74
2022-08-05T11:52:01.207Z,34.33
2022-08-05T11:54:35.001Z,34.80
2022-08-05T11:57:08.162Z,35.05
2022-08-05T11:59:51.456Z,35.31
2022-08-05T12:02:29.652Z,35.62
2022-08-05T12:05:07.494Z,36.01
2022-08-05T12:08:08.962Z,36.09
2022-08-05T12:10:38.652Z,35.93
2022-08-05T12:13:18.801Z,35.76
2022-08-05T12:16:15.462Z,35.91
2022-08-05T12:18:49.306Z,36.01
2022-08-05T12:21:26.994Z,35.85
2022-08-05T12:24:04.630Z,35.62
2022-08-05T12:26:32.792Z,35.79
2022-08-05T12:29:01.515Z,35.93
2022-08-05T12:31:33.528Z,36.20
2022-08-05T12:34:20.527Z,36.55
2022-08-05T12:36:49.915Z,36.76
2022-08-05T12:39:17.710Z,37.01
2022-08-05T12:41:45.438Z,37.26
2022-08-05T12:44:32.584Z,37.49
2022-08-05T12:47:02.232Z,37.62
2022-08-05T12:50:04.720Z,37.80
2022-08-05T12:52:42.027Z,38.02
2022-08-05T12:55:25.334Z,38.08
2022-08-05T12:58:49.930Z,38.10
2022-08-05T13:02:01.382Z,38.22
2022-08-05T13:03:32.235Z,38.31
2022-08-05T13:05:59.393Z,38.41
2022-08-05T13:08:32.106Z,38.41
2022-08-05T13:11:02.439Z,38.60
2022-08-05T13:14:05.926Z,38.21
2022-08-05T13:16:19.998Z,38.51
2022-08-05T13:18:57.740Z,38.18
2022-08-05T13:21:27.893Z,38.27
2022-08-05T13:24:05.656Z,38.57
2022-08-05T13:26:32.682Z,38.67
2022-08-05T13:28:59.658Z,38.90
2022-08-05T13:32:02.872Z,38.69
2022-08-05T13:34:22.648Z,38.94
2022-08-05T13:36:52.300Z,37.79
2022-08-05T13:40:14.030Z,38.20
2022-08-05T13:42:05.937Z,38.45
2022-08-05T13:44:32.673Z,38.58
2022-08-05T13:47:08.829Z,38.64
2022-08-05T13:49:36.454Z,38.63
2022-08-05T13:52:29.477Z,38.81
2022-08-05T13:54:56.746Z,38.65
2022-08-05T13:57:26.322Z,38.50
2022-08-05T14:00:13.148Z,37.84
2022-08-05T14:02:39.961Z,37.44
2022-08-05T14:05:15.440Z,37.26
2022-08-05T14:08:02.872Z,37.56
2022-08-05T14:10:35.642Z,37.68
2022-08-05T14:13:05.851Z,37.74
2022-08-05T14:16:08.068Z,37.82
2022-08-05T14:18:23.454Z,37.47
2022-08-05T14:20:54.527Z,37.35
2022-08-05T14:23:25.263Z,37.36
2022-08-05T14:25:59.004Z,37.18
2022-08-05T14:28:30.426Z,36.89
2022-08-05T14:30:58.880Z,36.41
2022-08-05T14:33:25.687Z,36.48
2022-08-05T14:35:54.417Z,36.28
2022-08-05T14:38:27.742Z,36.19
2022-08-05T14:41:00.911Z,36.01
2022-08-05T14:43:58.953Z,35.86
2022-08-05T14:46:14.552Z,35.82
2022-08-05T14:48:41.499Z,35.33
2022-08-05T14:51:09.420Z,35.30
2022-08-05T14:53:44.423Z,35.20
2022-08-05T14:56:11.987Z,35.28
2022-08-05T14:58:47.946Z,35.05
2022-08-05T15:01:47.281Z,35.07
2022-08-05T15:04:11.477Z,34.98
2022-08-05T15:06:38.887Z,34.82
2022-08-05T15:09:07.174Z,34.69
2022-08-05T15:11:52.462Z,34.55
2022-08-05T15:14:34.264Z,34.48
2022-08-05T15:17:04.742Z,34.26
2022-08-05T15:19:32.400Z,34.10
2022-08-05T15:22:01.298Z,33.70
2022-08-05T15:24:28.746Z,33.60
2022-08-05T15:26:56.006Z,33.60
2022-08-05T15:29:23.790Z,33.28
2022-08-05T15:31:57.254Z,33.35
2022-08-05T15:34:32.307Z,33.36
2022-08-05T15:37:02.361Z,33.00
2022-08-05T15:41:02.133Z,33.22
2022-08-05T15:42:50.320Z,33.14
2022-08-05T15:45:06.233Z,33.06
2022-08-05T15:47:35.914Z,32.77
2022-08-05T15:50:03.758Z,32.89
2022-08-05T15:52:53.303Z,32.89
2022-08-05T15:55:20.137Z,32.53
2022-08-05T15:57:52.328Z,32.94
2022-08-05T16:00:29.294Z,32.99
2022-08-05T16:03:06.490Z,33.09
2022-08-05T16:05:33.292Z,33.27
2022-08-05T16:08:00.042Z,33.19
2022-08-05T16:10:27.129Z,33.18
2022-08-05T16:12:55.885Z,32.39
2022-08-05T16:15:23.283Z,31.36
2022-08-05T16:17:57.935Z,30.39
2022-08-05T16:20:25.752Z,29.81
2022-08-05T16:22:54.759Z,29.49
2022-08-05T16:25:24.146Z,29.32
2022-08-05T16:28:09.811Z,29.40
2022-08-05T16:30:37.674Z,29.18
2022-08-05T16:33:04.810Z,29.55
2022-08-05T16:35:33.758Z,29.58
2022-08-05T16:38:16.456Z,29.73
2022-08-05T16:40:59.807Z,29.93
2022-08-05T16:43:33.059Z,29.81
2022-08-05T16:46:03.790Z,29.94
2022-08-05T16:48:38.261Z,29.43
2022-08-05T16:51:08.995Z,29.29
2022-08-05T16:54:05.686Z,29.29
2022-08-05T16:56:23.887Z,29.38
2022-08-05T16:58:50.734Z,29.12
2022-08-05T17:01:18.893Z,28.72
2022-08-05T17:03:46.030Z,28.59
2022-08-05T17:06:13.333Z,27.99
2022-08-05T17:08:53.152Z,27.30
2022-08-05T17:11:25.395Z,27.15
2022-08-05T17:13:54.805Z,27.10
2022-08-05T17:16:37.811Z,27.29
2022-08-05T17:19:07.862Z,27.27
2022-08-05T17:21:39.420Z,27.28
2022-08-05T17:24:19.794Z,27.21
2022-08-05T17:26:57.099Z,27.34
2022-08-05T17:29:33.072Z,27.70
2022-08-05T17:32:06.789Z,28.19
2022-08-05T17:34:35.259Z,28.44
2022-08-05T17:37:01.945Z,28.55
2022-08-05T17:39:33.965Z,28.57
2022-08-05T17:42:17.881Z,28.59
2022-08-05T17:44:50.321Z,28.95
2022-08-05T17:47:22.902Z,29.12
2022-08-05T17:50:04.328Z,29.25
2022-08-05T17:52:53.044Z,29.36
2022-08-05T17:55:22.698Z,29.51
2022-08-05T17:57:54.300Z,29.61
2022-08-05T18:00:21.045Z,29.62
2022-08-05T18:02:55.268Z,29.44
2022-08-05T18:05:22.287Z,29.64
2022-08-05T18:07:49.630Z,29.76
2022-08-05T18:10:21.116Z,29.61
2022-08-05T18:12:49.150Z,29.54
2022-08-05T18:15:15.867Z,29.27
2022-08-05T18:17:59.677Z,29.29
2022-08-05T18:20:32.009Z,29.28
2022-08-05T18:23:09.271Z,29.13
2022-08-05T18:25:39.157Z,28.60
2022-08-05T18:28:07.106Z,28.66
2022-08-05T18:30:39.109Z,28.76
2022-08-05T18:33:07.490Z,28.63
2022-08-05T18:36:01.103Z,28.68
2022-08-05T18:38:25.902Z,28.78
2022-08-05T18:41:53.311Z,29.01
2022-08-05T18:43:43.087Z,28.98
2022-08-05T18:46:15.475Z,27.56
2022-08-05T18:48:46.279Z,27.86
2022-08-05T18:52:02.751Z,27.83
2022-08-05T18:54:19.840Z,27.97
2022-08-05T18:56:51.307Z,27.96
2022-08-05T18:59:44.409Z,28.06
2022-08-05T19:02:11.334Z,28.20
2022-08-05T19:05:01.363Z,28.28
2022-08-05T19:07:45.984Z,28.37
2022-08-05T19:10:13.220Z,28.53
2022-08-05T19:12:40.460Z,28.57
2022-08-05T19:15:24.940Z,28.41
2022-08-05T19:17:59.856Z,28.27
2022-08-05T19:20:37.104Z,28.44
2022-08-05T19:23:08.563Z,27.85
2022-08-05T19:26:01.699Z,27.75
2022-08-05T19:28:29.388Z,27.86
2022-08-05T19:30:56.044Z,27.93
2022-08-05T19:33:35.626Z,27.96
2022-08-05T19:36:02.817Z,28.00
2022-08-05T19:38:33.781Z,27.95
2022-08-05T19:41:02.418Z,27.24
2022-08-05T19:44:05.804Z,26.57
2022-08-05T19:46:29.726Z,27.22
2022-08-05T19:49:04.561Z,27.25
2022-08-05T19:52:05.733Z,27.18
2022-08-05T19:54:25.474Z,27.18
2022-08-05T19:56:58.357Z,27.09
2022-08-05T20:00:01.020Z,27.32
2022-08-05T20:02:14.439Z,27.01
2022-08-05T20:04:43.258Z,27.07
2022-08-05T20:07:13.954Z,26.89
2022-08-05T20:09:54.761Z,27.11
2022-08-05T20:12:23.713Z,27.14
2022-08-05T20:14:52.225Z,26.67
2022-08-05T20:17:23.458Z,26.03
2022-08-05T20:19:56.545Z,26.00
2022-08-05T20:22:27.180Z,25.49
2022-08-05T20:24:55.362Z,25.97
2022-08-05T20:27:26.701Z,25.47
2022-08-05T20:29:58.557Z,25.29
2022-08-05T20:32:27.273Z,24.98
2022-08-05T20:34:54.630Z,24.07
2022-08-05T20:38:04.811Z,23.90
2022-08-05T20:40:09.360Z,23.89
2022-08-05T20:42:36.097Z,24.15
2022-08-05T20:45:04.618Z,24.28
2022-08-05T20:47:32.716Z,24.28
2022-08-05T20:50:02.148Z,24.54
2022-08-05T20:52:29.397Z,24.56
2022-08-05T20:55:54.214Z,24.54
2022-08-05T20:57:44.682Z,23.72
2022-08-05T21:00:40.868Z,23.89
2022-08-05T21:03:07.422Z,23.84
2022-08-05T21:05:48.098Z,23.74
2022-08-05T21:08:21.024Z,23.77
2022-08-05T21:10:53.779Z,23.93
2022-08-05T21:13:26.044Z,24.13
2022-08-05T21:15:54.606Z,24.32
2022-08-05T21:18:23.374Z,24.44
2022-08-05T21:20:50.185Z,24.59
2022-08-05T21:23:16.907Z,24.79
2022-08-05T21:25:44.847Z,25.03
2022-08-05T21:28:12.190Z,24.86
2022-08-05T21:30:45.211Z,24.70
2022-08-05T21:33:21.963Z,24.84
2022-08-05T21:35:55.759Z,24.82
2022-08-05T21:38:26.690Z,24.89
2022-08-05T21:40:53.346Z,24.87
2022-08-05T21:43:24.505Z,24.96
2022-08-05T21:45:57.633Z,24.89
2022-08-05T21:48:28.164Z,24.91
2022-08-05T21:50:55.243Z,25.15
2022-08-05T21:53:27.545Z,25.29
2022-08-05T21:56:05.028Z,25.13
2022-08-05T21:58:37.058Z,24.57
2022-08-05T22:01:10.763Z,23.98
2022-08-05T22:03:52.428Z,23.94
2022-08-05T22:06:22.204Z,23.99
2022-08-05T22:08:51.816Z,24.09
2022-08-05T22:11:19.343Z,24.42
2022-08-05T22:14:05.538Z,24.44
2022-08-05T22:16:51.889Z,23.99
2022-08-05T22:20:01.158Z,23.98
2022-08-05T22:22:07.560Z,23.92
2022-08-05T22:24:55.694Z,24.02
2022-08-05T22:28:11.025Z,23.86
2022-08-05T22:30:32.208Z,24.22
2022-08-05T22:33:02.138Z,24.44
2022-08-05T22:35:31.262Z,24.06
2022-08-05T22:38:15.027Z,23.69
2022-08-05T22:40:41.963Z,23.24
2022-08-05T22:43:16.339Z,23.18
2022-08-05T22:46:07.427Z,23.19
2022-08-05T22:48:39.191Z,23.20
2022-08-05T22:51:07.048Z,23.23
2022-08-05T22:53:35.823Z,23.29
2022-08-05T22:56:03.664Z,23.24
2022-08-05T22:58:36.796Z,23.38
2022-08-05T23:01:03.505Z,23.54
2022-08-05T23:03:58.156Z,23.64
2022-08-05T23:06:19.869Z,23.59
2022-08-05T23:08:52.994Z,23.69
2022-08-05T23:11:19.656Z,23.49
2022-08-05T23:13:46.309Z,23.43
2022-08-05T23:16:26.224Z,23.33
2022-08-05T23:19:00.319Z,23.26
2022-08-05T23:21:42.659Z,23.37
2022-08-05T23:24:14.583Z,23.40
2022-08-05T23:26:41.974Z,23.57
2022-08-05T23:29:10.879Z,23.25
2022-08-05T23:31:42.579Z,22.81
2022-08-05T23:34:11.391Z,22.52
2022-08-05T23:36:44.329Z,22.25
2022-08-05T23:39:17.589Z,22.25
2022-08-05T23:41:59.568Z,22.20
2022-08-05T23:44:27.815Z,22.59
2022-08-05T23:47:00.294Z,22.74
2022-08-05T23:49:35.764Z,23.00
2022-08-05T23:52:21.805Z,22.50
2022-08-05T23:54:52.688Z,22.22
2022-08-05T23:57:19.412Z,22.38
